Pagrindinis puslapis
METAR-TAF:

METAR-TAF

Oro uostai :

Mora–Siljan

Mora, Švedija

platuma: 60-57-31N, ilguma: 14-30-40E, Aukštis: 193 m

Dabartinis oras

Ataskaita buvo paskelbta 42 minutes, ne 13:50 UTC
Vėjas 10 kt iš Šiaurės, svyruoja nuo Šiaurės/Šiaurės Vakarų ir Šiaurės/Šiaurės Rytų
Temperatūra 6°C
Drėgmė 19%
Slėgis 1016 hPa
Matomumas 10 km arba daugiau

METAR: ESKM 201350Z AUTO 36010KT 330V030 9999 NCD 06/M16 Q1016

Laikas: 16:32 (14:32 UTC)


TAF: trūkstamas

Orai ataskaitas ir orų prognozės (METAR, TAF).

turimą stotys yra geltonos ir raudonos taškus žemėlapyje.

Perkelti pele per norėdami pamatyti stoties vardą.

Tada spustelėkite, norėdami matyti oro stebėjimo ir prognozės.

Norėdami pakeisti žemėlapį: spustelėkite ant žalios mygtukų su juodo kryžiaus žemyn,; žalią mygtuką su brūkšneliu, jei norite nutolinti; arba žalių rodyklių gretimoms žemėlapius.


METAR-TAF: